sensor_id;sensor_type;location;lat;lon;timestamp;P1;durP1;ratioP1;P2;durP2;ratioP2
15381;SDS011;7789;51.364;12.358;2023-02-23T00:00:21;13.73;;;11.10;;
15381;SDS011;7789;51.364;12.358;2023-02-23T00:05:30;16.33;;;12.03;;
15381;SDS011;7789;51.364;12.358;2023-02-23T00:10:38;14.57;;;12.10;;
15381;SDS011;7789;51.364;12.358;2023-02-23T00:15:41;14.10;;;11.50;;
15381;SDS011;7789;51.364;12.358;2023-02-23T00:20:46;16.27;;;12.07;;
15381;SDS011;7789;51.364;12.358;2023-02-23T00:25:58;15.13;;;12.23;;
15381;SDS011;7789;51.364;12.358;2023-02-23T00:31:01;15.33;;;11.67;;
15381;SDS011;7789;51.364;12.358;2023-02-23T00:36:07;14.57;;;11.20;;
15381;SDS011;7789;51.364;12.358;2023-02-23T00:41:14;14.90;;;11.77;;
15381;SDS011;7789;51.364;12.358;2023-02-23T00:46:21;16.53;;;11.27;;
15381;SDS011;7789;51.364;12.358;2023-02-23T00:51:29;12.10;;;10.53;;
15381;SDS011;7789;51.364;12.358;2023-02-23T00:56:33;13.13;;;9.90;;
15381;SDS011;7789;51.364;12.358;2023-02-23T01:01:36;12.43;;;9.53;;
15381;SDS011;7789;51.364;12.358;2023-02-23T01:06:43;12.60;;;9.50;;
15381;SDS011;7789;51.364;12.358;2023-02-23T01:11:47;11.47;;;9.30;;
15381;SDS011;7789;51.364;12.358;2023-02-23T01:16:50;11.03;;;9.40;;
15381;SDS011;7789;51.364;12.358;2023-02-23T01:21:54;11.67;;;9.07;;
15381;SDS011;7789;51.364;12.358;2023-02-23T01:26:57;10.93;;;9.13;;
15381;SDS011;7789;51.364;12.358;2023-02-23T01:32:01;12.53;;;9.23;;
15381;SDS011;7789;51.364;12.358;2023-02-23T01:37:06;9.80;;;8.73;;
15381;SDS011;7789;51.364;12.358;2023-02-23T01:42:10;10.30;;;8.93;;
15381;SDS011;7789;51.364;12.358;2023-02-23T01:47:15;11.23;;;8.63;;
15381;SDS011;7789;51.364;12.358;2023-02-23T01:52:22;11.93;;;9.93;;
15381;SDS011;7789;51.364;12.358;2023-02-23T01:57:25;12.23;;;9.37;;
15381;SDS011;7789;51.364;12.358;2023-02-23T02:02:28;10.63;;;9.10;;
15381;SDS011;7789;51.364;12.358;2023-02-23T02:07:39;10.93;;;9.70;;
15381;SDS011;7789;51.364;12.358;2023-02-23T02:12:48;11.57;;;9.90;;
15381;SDS011;7789;51.364;12.358;2023-02-23T02:17:58;12.87;;;10.13;;
15381;SDS011;7789;51.364;12.358;2023-02-23T02:29:04;11.07;;;9.10;;
15381;SDS011;7789;51.364;12.358;2023-02-23T02:40:16;13.63;;;9.70;;
15381;SDS011;7789;51.364;12.358;2023-02-23T02:45:29;12.80;;;10.57;;
15381;SDS011;7789;51.364;12.358;2023-02-23T02:50:40;13.20;;;10.97;;
15381;SDS011;7789;51.364;12.358;2023-02-23T02:55:50;12.67;;;10.50;;
15381;SDS011;7789;51.364;12.358;2023-02-23T03:01:05;12.97;;;10.13;;
15381;SDS011;7789;51.364;12.358;2023-02-23T03:06:28;13.13;;;10.17;;
15381;SDS011;7789;51.364;12.358;2023-02-23T03:11:58;11.83;;;10.30;;
15381;SDS011;7789;51.364;12.358;2023-02-23T03:17:29;12.47;;;10.03;;
15381;SDS011;7789;51.364;12.358;2023-02-23T03:22:55;13.80;;;11.50;;
15381;SDS011;7789;51.364;12.358;2023-02-23T03:28:21;14.10;;;10.20;;
15381;SDS011;7789;51.364;12.358;2023-02-23T03:33:49;12.70;;;10.80;;
15381;SDS011;7789;51.364;12.358;2023-02-23T03:39:17;17.77;;;10.87;;
15381;SDS011;7789;51.364;12.358;2023-02-23T03:44:44;13.40;;;10.83;;
15381;SDS011;7789;51.364;12.358;2023-02-23T03:50:08;11.30;;;10.10;;
15381;SDS011;7789;51.364;12.358;2023-02-23T03:55:35;11.67;;;10.00;;
15381;SDS011;7789;51.364;12.358;2023-02-23T04:01:00;11.80;;;9.70;;
15381;SDS011;7789;51.364;12.358;2023-02-23T04:06:25;10.70;;;9.60;;
15381;SDS011;7789;51.364;12.358;2023-02-23T04:11:51;11.73;;;10.53;;
15381;SDS011;7789;51.364;12.358;2023-02-23T04:17:18;12.97;;;10.03;;
15381;SDS011;7789;51.364;12.358;2023-02-23T04:22:23;11.67;;;9.73;;
15381;SDS011;7789;51.364;12.358;2023-02-23T04:27:27;14.17;;;10.30;;
15381;SDS011;7789;51.364;12.358;2023-02-23T04:32:35;12.80;;;10.33;;
15381;SDS011;7789;51.364;12.358;2023-02-23T04:37:38;13.67;;;9.23;;
15381;SDS011;7789;51.364;12.358;2023-02-23T04:42:41;13.70;;;9.73;;
15381;SDS011;7789;51.364;12.358;2023-02-23T04:47:46;12.30;;;9.83;;
15381;SDS011;7789;51.364;12.358;2023-02-23T04:52:50;15.80;;;10.43;;
15381;SDS011;7789;51.364;12.358;2023-02-23T04:57:55;12.93;;;9.63;;
15381;SDS011;7789;51.364;12.358;2023-02-23T05:03:02;13.77;;;10.23;;
15381;SDS011;7789;51.364;12.358;2023-02-23T05:08:05;11.23;;;9.87;;
15381;SDS011;7789;51.364;12.358;2023-02-23T05:13:09;11.07;;;9.63;;
15381;SDS011;7789;51.364;12.358;2023-02-23T05:18:13;13.97;;;10.60;;
15381;SDS011;7789;51.364;12.358;2023-02-23T05:23:16;12.87;;;10.83;;
15381;SDS011;7789;51.364;12.358;2023-02-23T05:28:22;14.80;;;9.93;;
15381;SDS011;7789;51.364;12.358;2023-02-23T05:33:27;13.20;;;9.77;;
15381;SDS011;7789;51.364;12.358;2023-02-23T05:38:30;12.43;;;9.67;;
15381;SDS011;7789;51.364;12.358;2023-02-23T05:43:33;13.97;;;10.43;;
15381;SDS011;7789;51.364;12.358;2023-02-23T05:48:38;12.50;;;10.30;;
15381;SDS011;7789;51.364;12.358;2023-02-23T05:53:41;13.30;;;10.23;;
15381;SDS011;7789;51.364;12.358;2023-02-23T05:58:44;13.77;;;10.47;;
15381;SDS011;7789;51.364;12.358;2023-02-23T06:03:49;13.33;;;10.30;;
15381;SDS011;7789;51.364;12.358;2023-02-23T06:08:52;16.10;;;11.03;;
15381;SDS011;7789;51.364;12.358;2023-02-23T06:13:57;16.57;;;10.90;;
15381;SDS011;7789;51.364;12.358;2023-02-23T06:19:02;12.07;;;10.23;;
15381;SDS011;7789;51.364;12.358;2023-02-23T06:24:05;13.33;;;11.00;;
15381;SDS011;7789;51.364;12.358;2023-02-23T06:29:08;12.13;;;10.67;;
15381;SDS011;7789;51.364;12.358;2023-02-23T06:34:13;11.07;;;9.83;;
15381;SDS011;7789;51.364;12.358;2023-02-23T06:39:17;13.13;;;10.60;;
15381;SDS011;7789;51.364;12.358;2023-02-23T06:44:20;13.60;;;10.00;;
15381;SDS011;7789;51.364;12.358;2023-02-23T06:49:25;14.30;;;10.60;;
15381;SDS011;7789;51.364;12.358;2023-02-23T06:54:28;13.60;;;10.87;;
15381;SDS011;7789;51.364;12.358;2023-02-23T06:59:31;12.93;;;10.70;;
15381;SDS011;7789;51.364;12.358;2023-02-23T07:04:35;16.00;;;10.40;;
15381;SDS011;7789;51.364;12.358;2023-02-23T07:09:39;15.00;;;10.63;;
15381;SDS011;7789;51.364;12.358;2023-02-23T07:14:43;12.07;;;10.63;;
15381;SDS011;7789;51.364;12.358;2023-02-23T07:19:48;18.10;;;9.77;;
15381;SDS011;7789;51.364;12.358;2023-02-23T07:24:51;15.80;;;10.60;;
15381;SDS011;7789;51.364;12.358;2023-02-23T07:29:54;13.33;;;9.93;;
15381;SDS011;7789;51.364;12.358;2023-02-23T07:34:59;12.30;;;9.73;;
15381;SDS011;7789;51.364;12.358;2023-02-23T07:40:02;13.90;;;11.00;;
15381;SDS011;7789;51.364;12.358;2023-02-23T07:45:06;16.67;;;10.97;;
15381;SDS011;7789;51.364;12.358;2023-02-23T07:50:11;14.53;;;10.80;;
15381;SDS011;7789;51.364;12.358;2023-02-23T07:55:15;16.77;;;13.23;;
15381;SDS011;7789;51.364;12.358;2023-02-23T08:00:18;15.57;;;11.00;;
15381;SDS011;7789;51.364;12.358;2023-02-23T08:05:23;13.10;;;9.80;;
15381;SDS011;7789;51.364;12.358;2023-02-23T08:10:27;15.90;;;11.00;;
15381;SDS011;7789;51.364;12.358;2023-02-23T08:15:30;14.50;;;9.57;;
15381;SDS011;7789;51.364;12.358;2023-02-23T08:20:34;16.93;;;10.73;;
15381;SDS011;7789;51.364;12.358;2023-02-23T08:25:38;11.63;;;9.93;;
15381;SDS011;7789;51.364;12.358;2023-02-23T08:30:41;15.50;;;9.67;;
15381;SDS011;7789;51.364;12.358;2023-02-23T08:35:46;14.63;;;9.80;;
15381;SDS011;7789;51.364;12.358;2023-02-23T08:40:49;12.03;;;9.97;;
15381;SDS011;7789;51.364;12.358;2023-02-23T08:45:52;14.53;;;10.50;;
15381;SDS011;7789;51.364;12.358;2023-02-23T08:50:57;13.47;;;10.60;;
15381;SDS011;7789;51.364;12.358;2023-02-23T08:56:01;12.97;;;10.90;;
15381;SDS011;7789;51.364;12.358;2023-02-23T09:01:07;13.53;;;10.13;;
15381;SDS011;7789;51.364;12.358;2023-02-23T09:06:21;13.45;;;11.15;;
15381;SDS011;7789;51.364;12.358;2023-02-23T09:11:25;15.40;;;12.27;;
15381;SDS011;7789;51.364;12.358;2023-02-23T09:16:29;14.35;;;11.48;;
15381;SDS011;7789;51.364;12.358;2023-02-23T09:21:34;18.17;;;13.00;;
15381;SDS011;7789;51.364;12.358;2023-02-23T09:26:37;17.88;;;12.75;;
15381;SDS011;7789;51.364;12.358;2023-02-23T09:31:46;16.58;;;12.43;;
15381;SDS011;7789;51.364;12.358;2023-02-23T09:36:53;16.27;;;13.15;;
15381;SDS011;7789;51.364;12.358;2023-02-23T09:42:08;17.25;;;13.50;;
15381;SDS011;7789;51.364;12.358;2023-02-23T09:47:22;17.20;;;13.80;;
15381;SDS011;7789;51.364;12.358;2023-02-23T09:52:37;20.00;;;14.00;;
15381;SDS011;7789;51.364;12.358;2023-02-23T09:57:43;18.30;;;14.52;;
15381;SDS011;7789;51.364;12.358;2023-02-23T10:02:54;17.83;;;14.27;;
15381;SDS011;7789;51.364;12.358;2023-02-23T10:08:23;17.98;;;15.07;;
15381;SDS011;7789;51.364;12.358;2023-02-23T10:13:37;19.25;;;14.38;;
15381;SDS011;7789;51.364;12.358;2023-02-23T10:18:51;19.35;;;16.60;;
15381;SDS011;7789;51.364;12.358;2023-02-23T10:24:04;20.77;;;16.13;;
15381;SDS011;7789;51.364;12.358;2023-02-23T10:29:20;20.10;;;15.45;;
15381;SDS011;7789;51.364;12.358;2023-02-23T10:34:28;18.48;;;15.13;;
15381;SDS011;7789;51.364;12.358;2023-02-23T10:39:34;16.73;;;14.98;;
15381;SDS011;7789;51.364;12.358;2023-02-23T10:44:37;18.88;;;14.48;;
15381;SDS011;7789;51.364;12.358;2023-02-23T10:49:42;20.00;;;15.45;;
15381;SDS011;7789;51.364;12.358;2023-02-23T10:54:49;20.55;;;15.05;;
15381;SDS011;7789;51.364;12.358;2023-02-23T11:00:02;20.85;;;16.05;;
15381;SDS011;7789;51.364;12.358;2023-02-23T11:05:35;22.85;;;17.48;;
15381;SDS011;7789;51.364;12.358;2023-02-23T11:10:55;23.05;;;18.60;;
15381;SDS011;7789;51.364;12.358;2023-02-23T11:16:00;21.08;;;17.20;;
15381;SDS011;7789;51.364;12.358;2023-02-23T11:21:16;25.95;;;20.98;;
15381;SDS011;7789;51.364;12.358;2023-02-23T11:26:26;26.08;;;20.70;;
15381;SDS011;7789;51.364;12.358;2023-02-23T11:31:34;22.08;;;18.70;;
15381;SDS011;7789;51.364;12.358;2023-02-23T11:36:40;25.00;;;19.15;;
15381;SDS011;7789;51.364;12.358;2023-02-23T11:41:44;29.60;;;20.38;;
15381;SDS011;7789;51.364;12.358;2023-02-23T11:46:48;22.35;;;19.88;;
15381;SDS011;7789;51.364;12.358;2023-02-23T11:51:53;25.65;;;18.63;;
15381;SDS011;7789;51.364;12.358;2023-02-23T11:56:58;22.05;;;19.40;;
15381;SDS011;7789;51.364;12.358;2023-02-23T12:02:04;24.90;;;21.48;;
15381;SDS011;7789;51.364;12.358;2023-02-23T12:07:31;27.25;;;20.50;;
15381;SDS011;7789;51.364;12.358;2023-02-23T12:12:45;26.40;;;21.42;;
15381;SDS011;7789;51.364;12.358;2023-02-23T12:17:56;27.52;;;21.55;;
15381;SDS011;7789;51.364;12.358;2023-02-23T12:23:06;24.90;;;20.33;;
15381;SDS011;7789;51.364;12.358;2023-02-23T12:28:17;24.48;;;20.83;;
15381;SDS011;7789;51.364;12.358;2023-02-23T12:33:33;26.00;;;20.88;;
15381;SDS011;7789;51.364;12.358;2023-02-23T12:38:43;28.45;;;21.75;;
15381;SDS011;7789;51.364;12.358;2023-02-23T12:43:56;26.42;;;22.45;;
15381;SDS011;7789;51.364;12.358;2023-02-23T12:49:05;25.17;;;21.88;;
15381;SDS011;7789;51.364;12.358;2023-02-23T12:54:19;24.40;;;20.40;;
15381;SDS011;7789;51.364;12.358;2023-02-23T12:59:43;28.63;;;22.00;;
15381;SDS011;7789;51.364;12.358;2023-02-23T13:05:04;31.75;;;23.52;;
15381;SDS011;7789;51.364;12.358;2023-02-23T13:10:29;29.92;;;22.83;;
15381;SDS011;7789;51.364;12.358;2023-02-23T13:15:48;28.77;;;23.08;;
15381;SDS011;7789;51.364;12.358;2023-02-23T13:21:03;28.67;;;21.67;;
15381;SDS011;7789;51.364;12.358;2023-02-23T13:26:13;31.80;;;23.67;;
15381;SDS011;7789;51.364;12.358;2023-02-23T13:31:28;28.70;;;23.90;;
15381;SDS011;7789;51.364;12.358;2023-02-23T13:36:34;35.85;;;26.20;;
15381;SDS011;7789;51.364;12.358;2023-02-23T13:41:38;35.22;;;25.33;;
15381;SDS011;7789;51.364;12.358;2023-02-23T13:46:49;34.83;;;26.17;;
15381;SDS011;7789;51.364;12.358;2023-02-23T13:51:59;38.30;;;25.42;;
15381;SDS011;7789;51.364;12.358;2023-02-23T13:57:12;37.03;;;26.75;;
15381;SDS011;7789;51.364;12.358;2023-02-23T14:02:21;39.13;;;27.98;;
15381;SDS011;7789;51.364;12.358;2023-02-23T14:07:37;37.22;;;25.73;;
15381;SDS011;7789;51.364;12.358;2023-02-23T14:23:37;37.53;;;27.52;;
15381;SDS011;7789;51.364;12.358;2023-02-23T14:34:51;36.55;;;28.20;;
15381;SDS011;7789;51.364;12.358;2023-02-23T14:45:54;36.58;;;28.30;;
15381;SDS011;7789;51.364;12.358;2023-02-23T14:51:18;36.58;;;27.52;;
15381;SDS011;7789;51.364;12.358;2023-02-23T14:56:26;36.70;;;28.25;;
15381;SDS011;7789;51.364;12.358;2023-02-23T15:01:44;36.72;;;28.02;;
15381;SDS011;7789;51.364;12.358;2023-02-23T15:06:50;37.47;;;28.20;;
15381;SDS011;7789;51.364;12.358;2023-02-23T15:12:02;39.65;;;28.92;;
15381;SDS011;7789;51.364;12.358;2023-02-23T15:17:15;38.55;;;30.20;;
15381;SDS011;7789;51.364;12.358;2023-02-23T15:22:24;37.50;;;29.38;;
15381;SDS011;7789;51.364;12.358;2023-02-23T15:27:35;37.13;;;29.00;;
15381;SDS011;7789;51.364;12.358;2023-02-23T15:32:43;37.70;;;29.17;;
15381;SDS011;7789;51.364;12.358;2023-02-23T15:37:48;38.53;;;29.92;;
15381;SDS011;7789;51.364;12.358;2023-02-23T15:43:11;43.80;;;31.13;;
15381;SDS011;7789;51.364;12.358;2023-02-23T15:48:15;41.08;;;30.02;;
15381;SDS011;7789;51.364;12.358;2023-02-23T15:53:27;44.45;;;32.50;;
15381;SDS011;7789;51.364;12.358;2023-02-23T15:58:37;47.95;;;32.33;;
15381;SDS011;7789;51.364;12.358;2023-02-23T16:03:59;49.95;;;34.60;;
15381;SDS011;7789;51.364;12.358;2023-02-23T16:09:23;46.00;;;32.75;;
15381;SDS011;7789;51.364;12.358;2023-02-23T16:14:30;47.88;;;34.65;;
15381;SDS011;7789;51.364;12.358;2023-02-23T16:19:36;52.65;;;34.92;;
15381;SDS011;7789;51.364;12.358;2023-02-23T16:24:43;50.90;;;34.15;;
15381;SDS011;7789;51.364;12.358;2023-02-23T16:29:47;50.95;;;36.05;;
15381;SDS011;7789;51.364;12.358;2023-02-23T16:35:01;48.95;;;34.30;;
15381;SDS011;7789;51.364;12.358;2023-02-23T16:40:13;54.67;;;36.88;;
15381;SDS011;7789;51.364;12.358;2023-02-23T16:45:19;55.50;;;37.38;;
15381;SDS011;7789;51.364;12.358;2023-02-23T16:50:23;55.00;;;36.92;;
15381;SDS011;7789;51.364;12.358;2023-02-23T16:55:29;57.85;;;37.47;;
15381;SDS011;7789;51.364;12.358;2023-02-23T17:00:39;53.08;;;36.47;;
15381;SDS011;7789;51.364;12.358;2023-02-23T17:05:46;57.72;;;38.10;;
15381;SDS011;7789;51.364;12.358;2023-02-23T17:10:58;58.28;;;39.97;;
15381;SDS011;7789;51.364;12.358;2023-02-23T17:16:03;55.95;;;38.80;;
15381;SDS011;7789;51.364;12.358;2023-02-23T17:21:09;62.78;;;42.00;;
15381;SDS011;7789;51.364;12.358;2023-02-23T17:26:19;56.78;;;40.47;;
15381;SDS011;7789;51.364;12.358;2023-02-23T17:31:28;56.67;;;38.35;;
15381;SDS011;7789;51.364;12.358;2023-02-23T17:36:32;59.42;;;39.63;;
15381;SDS011;7789;51.364;12.358;2023-02-23T17:41:37;58.25;;;39.35;;
15381;SDS011;7789;51.364;12.358;2023-02-23T17:46:40;58.53;;;38.92;;
15381;SDS011;7789;51.364;12.358;2023-02-23T17:51:44;61.47;;;40.08;;
15381;SDS011;7789;51.364;12.358;2023-02-23T17:56:49;57.53;;;40.23;;
15381;SDS011;7789;51.364;12.358;2023-02-23T18:01:52;62.30;;;40.85;;
15381;SDS011;7789;51.364;12.358;2023-02-23T18:06:56;60.63;;;41.45;;
15381;SDS011;7789;51.364;12.358;2023-02-23T18:12:01;65.13;;;42.27;;
15381;SDS011;7789;51.364;12.358;2023-02-23T18:17:05;63.17;;;41.97;;
15381;SDS011;7789;51.364;12.358;2023-02-23T18:22:08;60.73;;;41.47;;
15381;SDS011;7789;51.364;12.358;2023-02-23T18:27:13;60.88;;;42.08;;
15381;SDS011;7789;51.364;12.358;2023-02-23T18:32:16;67.63;;;42.63;;
15381;SDS011;7789;51.364;12.358;2023-02-23T18:37:20;64.17;;;45.40;;
15381;SDS011;7789;51.364;12.358;2023-02-23T18:42:27;65.47;;;44.30;;
15381;SDS011;7789;51.364;12.358;2023-02-23T18:47:32;53.23;;;37.97;;
15381;SDS011;7789;51.364;12.358;2023-02-23T18:52:35;39.47;;;30.60;;
15381;SDS011;7789;51.364;12.358;2023-02-23T18:57:42;27.83;;;22.53;;
15381;SDS011;7789;51.364;12.358;2023-02-23T19:02:46;29.70;;;22.87;;
15381;SDS011;7789;51.364;12.358;2023-02-23T19:07:49;28.23;;;22.67;;
15381;SDS011;7789;51.364;12.358;2023-02-23T19:12:54;26.23;;;22.13;;
15381;SDS011;7789;51.364;12.358;2023-02-23T19:17:57;28.10;;;21.67;;
15381;SDS011;7789;51.364;12.358;2023-02-23T19:23:00;32.47;;;23.70;;
15381;SDS011;7789;51.364;12.358;2023-02-23T19:28:06;37.57;;;24.90;;
15381;SDS011;7789;51.364;12.358;2023-02-23T19:33:10;27.17;;;22.13;;
15381;SDS011;7789;51.364;12.358;2023-02-23T19:38:14;30.27;;;23.20;;
15381;SDS011;7789;51.364;12.358;2023-02-23T19:43:19;29.00;;;23.43;;
15381;SDS011;7789;51.364;12.358;2023-02-23T19:48:22;28.77;;;23.47;;
15381;SDS011;7789;51.364;12.358;2023-02-23T19:53:28;32.77;;;25.20;;
15381;SDS011;7789;51.364;12.358;2023-02-23T19:58:33;29.90;;;24.27;;
15381;SDS011;7789;51.364;12.358;2023-02-23T20:03:39;32.83;;;24.73;;
15381;SDS011;7789;51.364;12.358;2023-02-23T20:08:43;34.13;;;26.63;;
15381;SDS011;7789;51.364;12.358;2023-02-23T20:13:50;30.23;;;24.07;;
15381;SDS011;7789;51.364;12.358;2023-02-23T20:18:53;27.97;;;22.43;;
15381;SDS011;7789;51.364;12.358;2023-02-23T20:23:57;23.83;;;19.43;;
15381;SDS011;7789;51.364;12.358;2023-02-23T20:29:03;26.67;;;21.10;;
15381;SDS011;7789;51.364;12.358;2023-02-23T20:34:11;21.80;;;17.60;;
15381;SDS011;7789;51.364;12.358;2023-02-23T20:39:15;18.07;;;15.53;;
15381;SDS011;7789;51.364;12.358;2023-02-23T20:44:22;17.10;;;15.30;;
15381;SDS011;7789;51.364;12.358;2023-02-23T20:49:25;18.87;;;16.73;;
15381;SDS011;7789;51.364;12.358;2023-02-23T20:54:33;20.17;;;17.67;;
15381;SDS011;7789;51.364;12.358;2023-02-23T20:59:47;22.70;;;18.77;;
15381;SDS011;7789;51.364;12.358;2023-02-23T21:04:53;23.57;;;19.93;;
15381;SDS011;7789;51.364;12.358;2023-02-23T21:09:59;25.20;;;21.13;;
15381;SDS011;7789;51.364;12.358;2023-02-23T21:15:07;28.63;;;21.90;;
15381;SDS011;7789;51.364;12.358;2023-02-23T21:20:17;25.57;;;21.63;;
15381;SDS011;7789;51.364;12.358;2023-02-23T21:25:30;24.47;;;20.40;;
15381;SDS011;7789;51.364;12.358;2023-02-23T21:30:37;27.90;;;22.77;;
15381;SDS011;7789;51.364;12.358;2023-02-23T21:35:42;25.83;;;21.23;;
15381;SDS011;7789;51.364;12.358;2023-02-23T21:40:45;26.23;;;21.87;;
15381;SDS011;7789;51.364;12.358;2023-02-23T21:45:51;26.10;;;21.20;;
15381;SDS011;7789;51.364;12.358;2023-02-23T21:51:00;28.40;;;23.10;;
15381;SDS011;7789;51.364;12.358;2023-02-23T21:56:05;29.00;;;22.23;;
15381;SDS011;7789;51.364;12.358;2023-02-23T22:01:14;27.30;;;21.10;;
15381;SDS011;7789;51.364;12.358;2023-02-23T22:06:20;24.50;;;20.33;;
15381;SDS011;7789;51.364;12.358;2023-02-23T22:11:26;27.23;;;21.83;;
15381;SDS011;7789;51.364;12.358;2023-02-23T22:16:32;28.90;;;22.03;;
15381;SDS011;7789;51.364;12.358;2023-02-23T22:21:37;26.90;;;20.63;;
15381;SDS011;7789;51.364;12.358;2023-02-23T22:26:42;26.73;;;20.90;;
15381;SDS011;7789;51.364;12.358;2023-02-23T22:31:52;27.27;;;20.47;;
15381;SDS011;7789;51.364;12.358;2023-02-23T22:36:56;25.83;;;18.67;;
15381;SDS011;7789;51.364;12.358;2023-02-23T22:41:59;26.37;;;18.47;;
15381;SDS011;7789;51.364;12.358;2023-02-23T22:47:11;24.27;;;17.60;;
15381;SDS011;7789;51.364;12.358;2023-02-23T22:52:14;28.70;;;19.60;;
15381;SDS011;7789;51.364;12.358;2023-02-23T22:57:17;27.03;;;18.63;;
15381;SDS011;7789;51.364;12.358;2023-02-23T23:02:22;23.70;;;17.93;;
15381;SDS011;7789;51.364;12.358;2023-02-23T23:07:25;27.63;;;19.07;;
15381;SDS011;7789;51.364;12.358;2023-02-23T23:12:30;25.23;;;18.80;;
15381;SDS011;7789;51.364;12.358;2023-02-23T23:17:36;23.03;;;16.80;;
15381;SDS011;7789;51.364;12.358;2023-02-23T23:22:40;26.30;;;17.83;;
15381;SDS011;7789;51.364;12.358;2023-02-23T23:27:43;24.57;;;17.67;;
15381;SDS011;7789;51.364;12.358;2023-02-23T23:32:48;24.97;;;17.13;;
15381;SDS011;7789;51.364;12.358;2023-02-23T23:37:51;21.73;;;17.07;;
15381;SDS011;7789;51.364;12.358;2023-02-23T23:42:54;20.83;;;15.43;;
15381;SDS011;7789;51.364;12.358;2023-02-23T23:47:59;17.67;;;13.60;;
15381;SDS011;7789;51.364;12.358;2023-02-23T23:53:09;17.00;;;13.23;;
15381;SDS011;7789;51.364;12.358;2023-02-23T23:58:15;17.10;;;13.70;;
